Time,TemperatureF,DewpointF,PressureIn,WindDirection,WindDirectionDegrees,WindSpeedMPH,WindSpeedGustMPH,Humidity,HourlyPrecipIn,Conditions,Clouds,dailyrainin,SoftwareType,DateUTC
2013-05-29 00:14:00,68.3,64.0,29.82,SSW,201,1.0,2.0,85,0.00,,,0.00,weatherlink.com 1.10,2013-05-29 02:14:00,
2013-05-29 00:31:00,66.8,63.0,29.82,SSW,200,0.0,1.0,88,0.00,,,0.00,weatherlink.com 1.10,2013-05-29 02:31:00,
2013-05-29 00:47:00,66.1,63.0,29.82,SSW,201,0.0,2.0,90,0.00,,,0.00,weatherlink.com 1.10,2013-05-29 02:47:00,
2013-05-29 01:03:00,65.8,63.0,29.82,SSW,200,0.0,0.0,91,0.00,,,0.00,weatherlink.com 1.10,2013-05-29 03:03:00,
2013-05-29 01:20:00,65.8,63.0,29.82,SSW,201,0.0,0.0,91,0.00,,,0.00,weatherlink.com 1.10,2013-05-29 03:20:00,
2013-05-29 01:36:00,65.1,62.0,29.82,SSW,201,0.0,0.0,91,0.00,,,0.00,weatherlink.com 1.10,2013-05-29 03:36:00,
2013-05-29 01:52:00,64.4,62.0,29.82,SSW,201,0.0,0.0,92,0.00,,,0.00,weatherlink.com 1.10,2013-05-29 03:52:00,
2013-05-29 02:09:00,63.7,62.0,28.26,SSW,201,1.0,2.0,93,0.00,,,0.00,weatherlink.com 1.10,2013-05-29 04:09:00,
2013-05-29 02:25:00,64.3,63.0,28.26,SSW,201,3.0,3.0,94,0.00,,,0.00,weatherlink.com 1.10,2013-05-29 04:25:00,
2013-05-29 02:41:00,68.3,65.0,28.26,SSW,213,1.0,10.0,88,0.00,,,0.00,weatherlink.com 1.10,2013-05-29 04:41:00,
2013-05-29 02:58:00,69.1,64.0,28.26,SSW,208,2.0,6.0,85,0.00,,,0.00,weatherlink.com 1.10,2013-05-29 04:58:00,
2013-05-29 03:14:00,69.0,64.0,0.00,SW,229,4.0,5.0,85,0.00,,,0.00,weatherlink.com 1.10,2013-05-29 05:14:00,
2013-05-29 03:30:00,68.6,64.0,0.00,SSW,192,0.0,6.0,85,0.00,,,0.00,weatherlink.com 1.10,2013-05-29 05:30:00,
2013-05-29 03:46:00,68.8,63.0,0.00,WSW,238,2.0,11.0,82,0.00,,,0.00,weatherlink.com 1.10,2013-05-29 05:46:00,
2013-05-29 04:02:00,68.6,63.0,0.00,SSW,193,3.0,9.0,81,0.00,,,0.00,weatherlink.com 1.10,2013-05-29 06:02:00,
2013-05-29 04:19:00,68.1,62.0,0.00,SW,219,4.0,7.0,82,0.00,,,0.00,weatherlink.com 1.10,2013-05-29 06:19:00,
2013-05-29 04:36:00,68.0,62.0,0.00,SW,224,0.0,7.0,81,0.00,,,0.00,weatherlink.com 1.10,2013-05-29 06:36:00,
2013-05-29 04:52:00,67.6,62.0,0.00,SW,227,0.0,5.0,81,0.00,,,0.00,weatherlink.com 1.10,2013-05-29 06:52:00,
2013-05-29 05:08:00,67.2,62.0,0.00,SW,223,0.0,5.0,82,0.00,,,0.00,weatherlink.com 1.10,2013-05-29 07:08:00,
2013-05-29 05:24:00,66.5,61.0,0.00,SW,223,0.0,1.0,83,0.00,,,0.00,weatherlink.com 1.10,2013-05-29 07:24:00,
2013-05-29 05:40:00,66.0,61.0,0.00,SW,223,0.0,3.0,84,0.00,,,0.00,weatherlink.com 1.10,2013-05-29 07:40:00,
2013-05-29 05:56:00,65.5,61.0,0.00,SW,223,0.0,3.0,84,0.00,,,0.00,weatherlink.com 1.10,2013-05-29 07:56:00,
2013-05-29 06:13:00,65.2,60.0,0.00,SW,224,0.0,0.0,84,0.00,,,0.00,weatherlink.com 1.10,2013-05-29 08:13:00,
2013-05-29 06:29:00,64.0,60.0,0.00,SW,224,0.0,0.0,87,0.00,,,0.00,weatherlink.com 1.10,2013-05-29 08:29:00,
2013-05-29 06:45:00,62.1,59.0,0.00,SW,224,0.0,2.0,90,0.00,,,0.00,weatherlink.com 1.10,2013-05-29 08:45:00,
2013-05-29 07:01:00,61.2,59.0,0.00,SW,224,0.0,0.0,92,0.00,,,0.00,weatherlink.com 1.10,2013-05-29 09:01:00,
2013-05-29 07:19:00,60.1,58.0,0.00,SW,224,0.0,2.0,93,0.00,,,0.00,weatherlink.com 1.10,2013-05-29 09:19:00,
2013-05-29 07:35:00,60.0,58.0,0.00,WSW,249,0.0,1.0,94,0.00,,,0.00,weatherlink.com 1.10,2013-05-29 09:35:00,
2013-05-29 07:51:00,60.2,59.0,0.00,NNW,327,0.0,1.0,95,0.00,,,0.00,weatherlink.com 1.10,2013-05-29 09:51:00,
2013-05-29 08:07:00,59.2,58.0,0.00,NNW,327,0.0,1.0,95,0.00,,,0.00,weatherlink.com 1.10,2013-05-29 10:07:00,
2013-05-29 08:23:00,59.2,58.0,0.00,NNW,327,0.0,0.0,95,0.00,,,0.00,weatherlink.com 1.10,2013-05-29 10:23:00,
2013-05-29 08:40:00,59.1,58.0,0.00,NNW,327,0.0,1.0,96,0.00,,,0.00,weatherlink.com 1.10,2013-05-29 10:40:00,
2013-05-29 08:56:00,59.4,58.0,0.00,NNW,330,0.0,0.0,96,0.00,,,0.00,weatherlink.com 1.10,2013-05-29 10:56:00,
2013-05-29 09:12:00,61.0,60.0,0.00,NNW,348,0.0,0.0,97,0.00,,,0.00,weatherlink.com 1.10,2013-05-29 11:12:00,
2013-05-29 09:28:00,63.1,62.0,0.00,NNW,347,0.0,0.0,96,0.00,,,0.00,weatherlink.com 1.10,2013-05-29 11:28:00,
2013-05-29 09:44:00,64.8,62.0,0.00,NNW,346,0.0,0.0,92,0.00,,,0.00,weatherlink.com 1.10,2013-05-29 11:44:00,
2013-05-29 10:01:00,65.8,63.0,0.00,North,360,0.0,3.0,91,0.00,,,0.00,weatherlink.com 1.10,2013-05-29 12:01:00,
2013-05-29 10:17:00,68.2,64.0,0.00,NNE,13,0.0,1.0,86,0.00,,,0.00,weatherlink.com 1.10,2013-05-29 12:17:00,
2013-05-29 10:34:00,69.9,64.0,0.00,NNE,14,0.0,1.0,83,0.00,,,0.00,weatherlink.com 1.10,2013-05-29 12:34:00,
2013-05-29 10:50:00,71.2,65.0,0.00,NNE,17,0.0,1.0,81,0.00,,,0.00,weatherlink.com 1.10,2013-05-29 12:50:00,
2013-05-29 11:06:00,71.5,66.0,0.00,NE,51,1.0,3.0,83,0.00,,,0.00,weatherlink.com 1.10,2013-05-29 13:06:00,
2013-05-29 11:23:00,72.2,65.0,0.00,NNW,344,3.0,5.0,79,0.00,,,0.00,weatherlink.com 1.10,2013-05-29 13:23:00,
2013-05-29 11:39:00,72.5,66.0,0.00,ENE,59,0.0,4.0,80,0.00,,,0.00,weatherlink.com 1.10,2013-05-29 13:39:00,
2013-05-29 11:55:00,73.4,67.0,0.00,East,88,1.0,5.0,80,0.00,,,0.00,weatherlink.com 1.10,2013-05-29 13:55:00,
2013-05-29 12:11:00,74.1,66.0,0.00,ESE,111,2.0,4.0,76,0.00,,,0.00,weatherlink.com 1.10,2013-05-29 14:11:00,
2013-05-29 12:28:00,75.0,67.0,0.00,ENE,75,1.0,5.0,76,0.00,,,0.00,weatherlink.com 1.10,2013-05-29 14:28:00,
2013-05-29 12:44:00,75.7,66.0,0.00,SSE,168,3.0,5.0,73,0.00,,,0.00,weatherlink.com 1.10,2013-05-29 14:44:00,
2013-05-29 13:00:00,76.4,67.0,22.57,West,267,0.0,6.0,73,0.00,,,0.00,weatherlink.com 1.10,2013-05-29 15:00:00,
2013-05-29 13:17:00,78.0,68.0,22.57,South,182,5.0,6.0,72,0.00,,,0.00,weatherlink.com 1.10,2013-05-29 15:17:00,
2013-05-29 13:34:00,77.6,67.0,22.56,ENE,75,2.0,5.0,70,0.00,,,0.00,weatherlink.com 1.10,2013-05-29 15:34:00,
2013-05-29 13:50:00,78.7,69.0,22.56,SSE,148,0.0,7.0,73,0.00,,,0.00,weatherlink.com 1.10,2013-05-29 15:50:00,
2013-05-29 14:06:00,79.3,69.0,22.56,ESE,111,3.0,5.0,71,0.00,,,0.00,weatherlink.com 1.10,2013-05-29 16:06:00,
2013-05-29 14:23:00,80.0,69.0,22.56,ESE,109,1.0,5.0,69,0.00,,,0.00,weatherlink.com 1.10,2013-05-29 16:23:00,
2013-05-29 14:39:00,80.8,69.0,0.00,SW,229,1.0,6.0,68,0.00,,,0.00,weatherlink.com 1.10,2013-05-29 16:39:00,
2013-05-29 14:55:00,81.5,68.0,0.00,SW,227,6.0,7.0,64,0.00,,,0.00,weatherlink.com 1.10,2013-05-29 16:55:00,
2013-05-29 15:12:00,81.7,68.0,0.00,SW,225,5.0,9.0,64,0.00,,,0.00,weatherlink.com 1.10,2013-05-29 17:12:00,
2013-05-29 15:28:00,81.7,67.0,0.00,SSW,192,6.0,11.0,62,0.00,,,0.00,weatherlink.com 1.10,2013-05-29 17:28:00,
2013-05-29 15:45:00,81.6,67.0,0.00,SSE,161,3.0,9.0,62,0.00,,,0.00,weatherlink.com 1.10,2013-05-29 17:45:00,
2013-05-29 16:01:00,81.9,68.0,0.00,SSW,210,1.0,8.0,63,0.00,,,0.00,weatherlink.com 1.10,2013-05-29 18:01:00,
2013-05-29 16:18:00,81.9,69.0,0.00,SSE,162,5.0,8.0,66,0.00,,,0.00,weatherlink.com 1.10,2013-05-29 18:18:00,
2013-05-29 16:34:00,82.1,68.0,0.00,South,176,1.0,7.0,63,0.00,,,0.00,weatherlink.com 1.10,2013-05-29 18:34:00,
2013-05-29 16:51:00,81.6,67.0,0.00,SSE,156,2.0,9.0,61,0.00,,,0.00,weatherlink.com 1.10,2013-05-29 18:51:00,
2013-05-29 17:07:00,80.7,66.0,0.00,SW,220,1.0,11.0,62,0.00,,,0.00,weatherlink.com 1.10,2013-05-29 19:07:00,
2013-05-29 17:23:00,82.4,69.0,0.00,South,178,7.0,9.0,65,0.00,,,0.00,weatherlink.com 1.10,2013-05-29 19:23:00,
2013-05-29 17:40:00,82.3,70.0,0.00,South,182,4.0,7.0,66,0.00,,,0.00,weatherlink.com 1.10,2013-05-29 19:40:00,
2013-05-29 17:56:00,82.2,68.0,0.00,SSE,153,2.0,8.0,63,0.00,,,0.00,weatherlink.com 1.10,2013-05-29 19:56:00,
2013-05-29 18:12:00,82.3,67.0,0.00,South,178,4.0,10.0,59,0.00,,,0.00,weatherlink.com 1.10,2013-05-29 20:12:00,
2013-05-29 18:29:00,82.6,67.0,0.00,SSE,156,6.0,8.0,60,0.00,,,0.00,weatherlink.com 1.10,2013-05-29 20:29:00,
2013-05-29 18:45:00,81.9,67.0,28.28,SSE,149,1.0,11.0,60,0.00,,,0.00,weatherlink.com 1.10,2013-05-29 20:45:00,
2013-05-29 19:01:00,82.0,67.0,28.28,South,172,6.0,9.0,61,0.00,,,0.00,weatherlink.com 1.10,2013-05-29 21:01:00,
2013-05-29 19:18:00,81.6,66.0,28.28,SE,142,0.0,10.0,59,0.00,,,0.00,weatherlink.com 1.10,2013-05-29 21:18:00,
2013-05-29 19:34:00,81.7,66.0,28.28,South,184,0.0,8.0,60,0.00,,,0.00,weatherlink.com 1.10,2013-05-29 21:34:00,
2013-05-29 19:51:00,81.2,64.0,28.28,South,171,1.0,11.0,56,0.00,,,0.00,weatherlink.com 1.10,2013-05-29 21:51:00,
2013-05-29 20:07:00,80.9,64.0,28.28,South,180,6.0,10.0,57,0.00,,,0.00,weatherlink.com 1.10,2013-05-29 22:07:00,
2013-05-29 20:23:00,80.4,63.0,28.28,SSE,152,0.0,8.0,56,0.00,,,0.00,weatherlink.com 1.10,2013-05-29 22:23:00,
2013-05-29 20:40:00,80.1,63.0,28.28,SSE,161,3.0,10.0,57,0.00,,,0.00,weatherlink.com 1.10,2013-05-29 22:40:00,
2013-05-29 20:56:00,80.0,63.0,28.28,SSW,194,5.0,7.0,57,0.00,,,0.00,weatherlink.com 1.10,2013-05-29 22:56:00,
2013-05-29 21:12:00,79.3,64.0,28.28,SSW,195,1.0,8.0,59,0.00,,,0.00,weatherlink.com 1.10,2013-05-29 23:12:00,
2013-05-29 21:29:00,78.7,64.0,28.28,SSW,213,1.0,5.0,60,0.00,,,0.00,weatherlink.com 1.10,2013-05-29 23:29:00,
2013-05-29 21:45:00,78.1,64.0,28.28,SSW,194,2.0,5.0,61,0.00,,,0.00,weatherlink.com 1.10,2013-05-29 23:45:00,
2013-05-29 22:01:00,77.6,64.0,28.28,SSW,197,0.0,4.0,62,0.00,,,0.00,weatherlink.com 1.10,2013-05-30 00:01:00,
2013-05-29 22:18:00,75.8,63.0,28.28,South,176,0.0,3.0,65,0.00,,,0.00,weatherlink.com 1.10,2013-05-30 00:18:00,
2013-05-29 22:34:00,74.5,63.0,28.28,West,272,0.0,1.0,68,0.00,,,0.00,weatherlink.com 1.10,2013-05-30 00:34:00,
2013-05-29 22:51:00,72.8,63.0,28.28,West,272,0.0,0.0,71,0.00,,,0.00,weatherlink.com 1.10,2013-05-30 00:51:00,
2013-05-29 23:07:00,71.5,63.0,28.28,West,272,0.0,0.0,74,0.00,,,0.00,weatherlink.com 1.10,2013-05-30 01:07:00,
2013-05-29 23:23:00,69.6,63.0,29.86,West,272,0.0,0.0,79,0.00,,,0.00,weatherlink.com 1.10,2013-05-30 01:23:00,
2013-05-29 23:39:00,68.4,63.0,29.86,West,272,0.0,0.0,82,0.00,,,0.00,weatherlink.com 1.10,2013-05-30 01:39:00,
2013-05-29 23:55:00,66.9,62.0,29.86,West,272,0.0,0.0,85,0.00,,,0.00,weatherlink.com 1.10,2013-05-30 01:55:00,